Time,TemperatureF,DewpointF,PressureIn,WindDirection,WindDirectionDegrees,WindSpeedMPH,WindSpeedGustMPH,Humidity,HourlyPrecipIn,Conditions,Clouds,dailyrainin,SolarRadiationWatts/m^2,SoftwareType,DateUTC
2014-12-19 00:13:00,36.8,34.0,30.32,NE,38,0.0,3.0,88,0.00,,,0.00,0,weatherlink.com 1.10,2014-12-19 06:13:00,
2014-12-19 00:29:00,36.7,34.0,30.31,NE,38,0.0,2.0,88,0.00,,,0.00,0,weatherlink.com 1.10,2014-12-19 06:29:00,
2014-12-19 00:44:00,36.6,33.0,30.31,NE,45,0.0,4.0,88,0.00,,,0.00,0,weatherlink.com 1.10,2014-12-19 06:44:00,
2014-12-19 00:59:00,36.6,33.0,30.31,NNE,32,3.0,5.0,88,0.00,,,0.00,0,weatherlink.com 1.10,2014-12-19 06:59:00,
2014-12-19 01:14:00,36.5,33.0,30.30,NNE,21,3.0,3.0,88,0.00,,,0.00,0,weatherlink.com 1.10,2014-12-19 07:14:00,
2014-12-19 01:29:00,36.4,33.0,30.30,NE,40,0.0,4.0,88,0.00,,,0.00,0,weatherlink.com 1.10,2014-12-19 07:29:00,
2014-12-19 01:44:00,36.3,33.0,30.30,NNE,12,0.0,3.0,88,0.00,,,0.00,0,weatherlink.com 1.10,2014-12-19 07:44:00,
2014-12-19 01:59:00,36.2,33.0,30.31,North,5,2.0,4.0,88,0.00,,,0.00,0,weatherlink.com 1.10,2014-12-19 07:59:00,
2014-12-19 02:14:00,36.2,33.0,30.31,North,11,0.0,3.0,88,0.00,,,0.00,0,weatherlink.com 1.10,2014-12-19 08:14:00,
2014-12-19 02:29:00,36.2,33.0,30.30,NE,44,2.0,2.0,88,0.00,,,0.00,0,weatherlink.com 1.10,2014-12-19 08:29:00,
2014-12-19 02:44:00,36.1,33.0,30.30,NNE,30,0.0,1.0,88,0.00,,,0.00,0,weatherlink.com 1.10,2014-12-19 08:44:00,
2014-12-19 02:59:00,36.1,33.0,30.30,NNE,28,0.0,3.0,88,0.00,,,0.00,0,weatherlink.com 1.10,2014-12-19 08:59:00,
2014-12-19 03:14:00,36.0,33.0,30.29,NNE,24,2.0,4.0,87,0.00,,,0.00,0,weatherlink.com 1.10,2014-12-19 09:14:00,
2014-12-19 03:29:00,36.0,33.0,30.29,NNE,28,0.0,3.0,87,0.00,,,0.00,0,weatherlink.com 1.10,2014-12-19 09:29:00,
2014-12-19 03:44:00,36.0,33.0,30.29,NE,38,0.0,3.0,87,0.00,,,0.00,0,weatherlink.com 1.10,2014-12-19 09:44:00,
2014-12-19 03:59:00,35.9,32.0,30.29,NNE,20,0.0,5.0,87,0.00,,,0.00,0,weatherlink.com 1.10,2014-12-19 09:59:00,
2014-12-19 04:14:00,35.9,32.0,30.29,NNE,15,0.0,3.0,87,0.00,,,0.00,0,weatherlink.com 1.10,2014-12-19 10:14:00,
2014-12-19 04:29:00,35.9,32.0,30.30,NNE,17,0.0,2.0,87,0.00,,,0.00,0,weatherlink.com 1.10,2014-12-19 10:29:00,
2014-12-19 04:44:00,35.9,33.0,30.31,NNE,17,0.0,1.0,88,0.00,,,0.00,0,weatherlink.com 1.10,2014-12-19 10:44:00,
2014-12-19 04:59:00,35.9,33.0,30.30,North,5,2.0,3.0,88,0.00,,,0.00,0,weatherlink.com 1.10,2014-12-19 10:59:00,
2014-12-19 05:14:00,35.7,32.0,30.30,NE,46,1.0,4.0,87,0.00,,,0.00,0,weatherlink.com 1.10,2014-12-19 11:14:00,
2014-12-19 05:29:00,35.7,32.0,30.30,NE,34,0.0,4.0,87,0.00,,,0.00,0,weatherlink.com 1.10,2014-12-19 11:29:00,
2014-12-19 05:44:00,35.6,32.0,30.30,NNE,29,3.0,4.0,87,0.00,,,0.00,0,weatherlink.com 1.10,2014-12-19 11:44:00,
2014-12-19 05:59:00,35.5,32.0,30.31,NNE,29,0.0,3.0,87,0.00,,,0.00,0,weatherlink.com 1.10,2014-12-19 11:59:00,
2014-12-19 06:14:00,35.4,32.0,30.32,NNE,29,0.0,2.0,87,0.00,,,0.00,0,weatherlink.com 1.10,2014-12-19 12:14:00,
2014-12-19 06:29:00,35.2,32.0,30.32,North,5,0.0,3.0,88,0.00,,,0.00,0,weatherlink.com 1.10,2014-12-19 12:29:00,
2014-12-19 06:44:00,35.2,32.0,30.32,NE,41,1.0,2.0,88,0.00,,,0.00,0,weatherlink.com 1.10,2014-12-19 12:44:00,
2014-12-19 06:59:00,35.2,32.0,30.32,ENE,58,0.0,2.0,89,0.00,,,0.00,0,weatherlink.com 1.10,2014-12-19 12:59:00,
2014-12-19 07:14:00,35.2,32.0,30.33,NE,54,1.0,2.0,88,0.00,,,0.00,7,weatherlink.com 1.10,2014-12-19 13:14:00,
2014-12-19 07:29:00,35.2,32.0,30.33,NNE,25,1.0,3.0,88,0.00,,,0.00,18,weatherlink.com 1.10,2014-12-19 13:29:00,
2014-12-19 07:44:00,35.2,32.0,30.33,NNE,24,1.0,2.0,87,0.00,,,0.00,23,weatherlink.com 1.10,2014-12-19 13:44:00,
2014-12-19 07:59:00,35.2,31.0,30.34,East,79,0.0,3.0,86,0.00,,,0.00,39,weatherlink.com 1.10,2014-12-19 13:59:00,
2014-12-19 08:14:00,35.3,31.0,30.33,NNE,15,0.0,3.0,85,0.00,,,0.00,46,weatherlink.com 1.10,2014-12-19 14:14:00,
2014-12-19 08:29:00,35.5,31.0,30.34,NE,39,1.0,3.0,85,0.00,,,0.00,54,weatherlink.com 1.10,2014-12-19 14:29:00,
2014-12-19 08:44:00,35.7,32.0,30.34,ENE,65,1.0,5.0,85,0.00,,,0.00,70,weatherlink.com 1.10,2014-12-19 14:44:00,
2014-12-19 09:00:00,35.9,32.0,30.35,ENE,76,0.0,3.0,84,0.00,,,0.00,79,weatherlink.com 1.10,2014-12-19 15:00:00,
2014-12-19 09:14:00,36.1,31.0,30.36,ENE,66,0.0,3.0,83,0.00,,,0.00,72,weatherlink.com 1.10,2014-12-19 15:14:00,
2014-12-19 09:30:00,36.4,31.0,30.35,ENE,66,0.0,3.0,82,0.00,,,0.00,90,weatherlink.com 1.10,2014-12-19 15:30:00,
2014-12-19 09:45:00,36.6,31.0,30.36,NNE,31,2.0,3.0,80,0.00,,,0.00,104,weatherlink.com 1.10,2014-12-19 15:45:00,
2014-12-19 10:00:00,36.9,31.0,30.36,NNE,22,0.0,3.0,80,0.00,,,0.00,114,weatherlink.com 1.10,2014-12-19 16:00:00,
2014-12-19 10:15:00,37.1,31.0,30.36,NE,51,0.0,2.0,79,0.00,,,0.00,132,weatherlink.com 1.10,2014-12-19 16:15:00,
2014-12-19 10:30:00,37.6,32.0,30.36,SSE,150,0.0,1.0,79,0.00,,,0.00,139,weatherlink.com 1.10,2014-12-19 16:30:00,
2014-12-19 10:45:00,38.2,31.0,30.35,ENE,61,1.0,4.0,76,0.00,,,0.00,171,weatherlink.com 1.10,2014-12-19 16:45:00,
2014-12-19 11:00:00,38.3,31.0,30.35,North,360,2.0,4.0,76,0.00,,,0.00,163,weatherlink.com 1.10,2014-12-19 17:00:00,
2014-12-19 11:30:00,39.1,31.0,30.32,ENE,63,0.0,5.0,73,0.00,,,0.00,211,weatherlink.com 1.10,2014-12-19 17:30:00,